Time;durP1;ratioP1;P1;durP2;ratioP2;P2;SDS_P1;SDS_P2;PMS_P1;PMS_P2;Temp;Humidity;BMP_temperature;BMP_pressure;BME280_temperature;BME280_humidity;BME280_pressure;Samples;Min_cycle;Max_cycle;Signal;HPM_P1;HPM_P2
2022/09/18 00:01:26;;;;;;;3.90;1.60;;;11.60;99.90;;;;;;5017466;28;20048;-79
2022/09/18 00:03:57;;;;;;;5.65;1.40;;;11.50;99.90;;;;;;5011850;28;20030;-79
2022/09/18 00:06:24;;;;;;;;;;;11.50;99.90;;;;;;5012299;28;20021;-78
2022/09/18 00:08:51;;;;;;;6.03;1.23;;;11.50;99.90;;;;;;5017556;28;20228;-78
2022/09/18 00:11:19;;;;;;;5.72;1.42;;;11.40;99.90;;;;;;5027587;28;20030;-78
2022/09/18 00:13:45;;;;;;;4.85;1.40;;;11.40;99.90;;;;;;5012545;28;20037;-77
2022/09/18 00:16:13;;;;;;;4.28;1.30;;;11.40;99.90;;;;;;5030439;28;20032;-78
2022/09/18 00:18:39;;;;;;;5.25;1.60;;;11.50;99.90;;;;;;5026683;28;20026;-78
2022/09/18 00:21:11;;;;;;;7.07;1.48;;;11.60;99.90;;;;;;5015448;28;20036;-79
2022/09/18 00:23:38;;;;;;;4.22;1.40;;;11.60;99.90;;;;;;5020315;28;20033;-78
2022/09/18 00:26:04;;;;;;;6.53;1.50;;;11.60;99.90;;;;;;5024578;28;20396;-76
2022/09/18 00:28:31;;;;;;;8.15;1.70;;;11.60;99.90;;;;;;5032867;28;20089;-77
2022/09/18 00:31:15;;;;;;;6.35;1.70;;;11.70;99.90;;;;;;5027421;28;20091;-79
2022/09/18 00:33:42;;;;;;;4.22;1.15;;;12.50;99.90;;;;;;5025698;28;20044;-78
2022/09/18 00:36:11;;;;;;;6.40;1.83;;;11.60;99.90;;;;;;5015212;28;20037;-78
2022/09/18 00:38:37;;;;;;;7.07;1.50;;;11.70;99.90;;;;;;5027609;28;20030;-77
2022/09/18 00:41:05;;;;;;;4.35;1.40;;;11.70;99.90;;;;;;5018084;28;20129;-78
2022/09/18 00:44:11;;;;;;;1.92;1.00;;;11.60;99.90;;;;;;5030448;28;20026;-78
2022/09/18 00:46:37;;;;;;;5.78;1.38;;;11.60;99.90;;;;;;5017083;28;20040;-78
2022/09/18 00:49:24;;;;;;;5.28;1.50;;;11.60;99.90;;;;;;5010778;28;20033;-77
2022/09/18 00:51:54;;;;;;;7.63;1.80;;;11.70;99.90;;;;;;5012982;28;20175;-77
2022/09/18 00:54:39;;;;;;;6.88;1.40;;;11.70;99.90;;;;;;5012607;28;20030;-76
2022/09/18 00:57:09;;;;;;;5.53;1.15;;;11.70;99.90;;;;;;5004737;28;20404;-77
2022/09/18 01:03:00;;;;;;;4.63;1.17;;;11.60;99.90;;;;;;5029889;28;20061;-79
2022/09/18 01:05:53;;;;;;;9.38;1.38;;;11.60;99.90;;;;;;5014984;28;20032;-78
2022/09/18 01:08:37;;;;;;;5.05;1.33;;;11.60;99.90;;;;;;5017618;28;20025;-78
2022/09/18 01:11:15;;;;;;;5.47;1.52;;;11.60;99.90;;;;;;5009000;28;20057;-78
2022/09/18 01:14:12;;;;;;;6.00;1.67;;;11.60;99.90;;;;;;5019825;28;20390;-78
2022/09/18 01:17:08;;;;;;;6.68;1.63;;;11.70;99.90;;;;;;5018071;28;20060;-78
2022/09/18 01:20:12;;;;;;;4.15;1.40;;;11.70;99.90;;;;;;5019286;28;20029;-76
2022/09/18 01:22:52;;;;;;;6.88;1.70;;;12.10;99.90;;;;;;5032592;28;20402;-78
2022/09/18 01:25:26;;;;;;;;;;;11.70;99.90;;;;;;5032378;28;20034;-77
2022/09/18 01:28:12;;;;;;;12.05;1.90;;;11.70;99.90;;;;;;5016670;28;19913;-77
2022/09/18 01:30:41;;;;;;;9.52;1.55;;;11.60;99.90;;;;;;5012425;28;20037;-79
2022/09/18 01:33:15;;;;;;;5.55;1.65;;;11.70;99.90;;;;;;5016178;28;20083;-77
2022/09/18 01:35:57;;;;;;;9.23;1.90;;;11.60;99.90;;;;;;5019981;28;20025;-77
2022/09/18 01:38:36;;;;;;;8.25;2.38;;;11.70;99.90;;;;;;5045483;28;20026;-77
2022/09/18 01:41:08;;;;;;;6.60;2.10;;;11.60;99.90;;;;;;5017676;28;20064;-77
2022/09/18 01:43:36;;;;;;;5.10;1.80;;;11.60;99.90;;;;;;5017462;28;20026;-79
2022/09/18 01:46:08;;;;;;;7.18;1.65;;;11.60;99.90;;;;;;5021843;28;20544;-79
2022/09/18 01:48:50;;;;;;;8.43;1.75;;;11.70;99.90;;;;;;5016758;28;20041;-78
2022/09/18 01:54:24;;;;;;;4.30;1.40;;;11.50;99.90;;;;;;5388396;22;20136;-78
2022/09/18 01:56:55;;;;;;;7.03;1.88;;;11.50;99.90;;;;;;5018302;28;20031;-78
2022/09/18 01:59:27;;;;;;;7.05;1.80;;;11.50;99.90;;;;;;5036322;28;20469;-77
2022/09/18 02:01:56;;;;;;;6.13;1.75;;;11.50;99.90;;;;;;5018097;28;20057;-76
2022/09/18 02:04:26;;;;;;;6.00;1.50;;;11.50;99.90;;;;;;5036331;28;20021;-77
2022/09/18 02:07:01;;;;;;;8.43;2.10;;;;;;;;;;5019596;28;20116;-76
2022/09/18 02:09:28;;;;;;;5.25;1.70;;;11.50;99.90;;;;;;5015618;28;20048;-76
2022/09/18 02:11:57;;;;;;;7.05;1.80;;;11.50;99.90;;;;;;5002056;28;20494;-77
2022/09/18 02:14:34;;;;;;;9.65;1.92;;;11.50;99.90;;;;;;5006937;28;20049;-78
2022/09/18 02:17:05;;;;;;;7.80;2.08;;;11.50;99.90;;;;;;5035664;28;20025;-77
2022/09/18 02:19:38;;;;;;;6.55;1.73;;;11.50;99.90;;;;;;5025622;28;20025;-77
2022/09/18 02:22:16;;;;;;;10.23;1.90;;;11.50;99.90;;;;;;5031812;28;20030;-78
2022/09/18 02:24:44;;;;;;;8.50;1.60;;;;;;;;;;5047089;28;20046;-77
2022/09/18 02:27:11;;;;;;;5.85;1.50;;;;;;;;;;5041154;28;20034;-78
2022/09/18 02:29:38;;;;;;;5.15;1.65;;;;;;;;;;5031346;28;20026;-77
2022/09/18 02:32:04;;;;;;;6.65;1.23;;;;;;;;;;5048716;28;20025;-77
2022/09/18 02:34:31;;;;;;;8.82;1.73;;;;;;;;;;5068611;28;20021;-78
2022/09/18 02:36:57;;;;;;;6.97;1.25;;;;;;;;;;5068505;28;20044;-77
2022/09/18 02:43:23;;;;;;;4.47;1.20;;;11.40;99.90;;;;;;5030718;28;20024;-77
2022/09/18 02:49:17;;;;;;;5.60;1.50;;;;;;;;;;5072485;22;20048;-76
2022/09/18 02:51:52;;;;;;;6.93;1.70;;;;;;;;;;5077971;28;20028;-77
2022/09/18 02:54:18;;;;;;;7.45;1.60;;;;;;;;;;5070823;28;20109;-78
2022/09/18 02:56:59;;;;;;;5.38;1.40;;;;;;;;;;5076855;28;20480;-78
2022/09/18 02:59:25;;;;;;;5.22;1.23;;;;;;;;;;5042757;28;20106;-77
2022/09/18 03:01:52;;;;;;;7.80;1.70;;;;;;;;;;5055173;28;20389;-77
2022/09/18 03:04:49;;;;;;;6.82;1.27;;;11.30;99.90;;;;;;5054760;28;20547;-78
2022/09/18 03:07:15;;;;;;;10.57;1.60;;;;;;;;;;5036431;28;20374;-77
2022/09/18 03:09:41;;;;;;;4.05;1.20;;;11.30;99.90;;;;;;5038967;23;20045;-85
2022/09/18 03:12:07;;;;;;;5.97;1.42;;;11.30;99.90;;;;;;5018828;28;20017;-86
2022/09/18 03:14:37;;;;;;;8.38;2.22;;;11.70;99.90;;;;;;5014757;28;20414;-81
2022/09/18 03:17:03;;;;;;;10.88;2.22;;;11.30;99.90;;;;;;5026640;28;20215;-80
2022/09/18 03:19:29;;;;;;;10.82;2.55;;;;;;;;;;5010766;28;20021;-79
2022/09/18 03:21:55;;;;;;;9.23;3.17;;;;;;;;;;4971402;28;20026;-80
2022/09/18 03:24:21;;;;;;;6.13;2.45;;;;;;;;;;5003908;28;20038;-81
2022/09/18 03:26:46;;;;;;;8.82;4.43;;;11.10;99.90;;;;;;5007028;28;20018;-83
2022/09/18 03:29:13;;;;;;;15.90;7.00;;;11.20;99.90;;;;;;5021837;28;20017;-87
2022/09/18 03:31:39;;;;;;;18.35;8.15;;;11.10;99.90;;;;;;5007459;28;20029;-86
2022/09/18 03:34:05;;;;;;;13.15;5.85;;;11.20;99.90;;;;;;5003814;28;20101;-83
2022/09/18 03:36:31;;;;;;;12.13;3.50;;;11.20;99.90;;;;;;5001852;28;20041;-83
2022/09/18 03:38:56;;;;;;;9.98;3.17;;;11.20;99.90;;;;;;4987261;28;20116;-80
2022/09/18 03:41:23;;;;;;;5.95;1.80;;;;;;;;;;5006649;28;20030;-81
2022/09/18 03:43:48;;;;;;;6.90;1.60;;;11.30;99.90;;;;;;5006734;28;20030;-84
2022/09/18 03:46:21;;;;;;;5.07;1.77;;;14.00;99.90;;;;;;5007471;28;20067;-85
2022/09/18 03:48:47;;;;;;;6.03;1.30;;;;;;;;;;4989693;28;20125;-83
2022/09/18 03:51:13;;;;;;;5.47;1.60;;;;;;;;;;5012742;28;20053;-84
2022/09/18 03:53:38;;;;;;;4.40;1.45;;;11.10;99.90;;;;;;4992275;28;20026;-83
2022/09/18 03:56:05;;;;;;;7.50;1.48;;;;;;;;;;5009210;28;20069;-84
2022/09/18 03:58:30;;;;;;;6.70;1.27;;;11.10;99.90;;;;;;4993365;28;20026;-81
2022/09/18 04:00:56;;;;;;;4.28;1.52;;;11.10;99.90;;;;;;5008823;28;20033;-79
2022/09/18 04:03:21;;;;;;;5.25;1.20;;;11.20;99.90;;;;;;4992512;28;20216;-83
2022/09/18 04:05:49;;;;;;;3.40;1.10;;;11.20;99.90;;;;;;5000841;28;20092;-80
2022/09/18 04:08:15;;;;;;;3.03;1.25;;;;;;;;;;5000548;28;20038;-80
2022/09/18 04:10:40;;;;;;;5.32;1.65;;;11.10;99.90;;;;;;4993583;28;20033;-82
2022/09/18 04:13:06;;;;;;;11.57;4.70;;;14.70;99.90;;;;;;4988859;28;20419;-82
2022/09/18 04:15:31;;;;;;;7.38;3.05;;;13.10;99.90;;;;;;4996046;28;20030;-82
2022/09/18 04:17:57;;;;;;;5.68;1.60;;;12.20;99.90;;;;;;4994642;28;20033;-81
2022/09/18 04:20:23;;;;;;;4.53;1.30;;;;;;;;;;5013174;28;20034;-83
2022/09/18 04:22:49;;;;;;;5.82;1.42;;;;;;;;;;4991958;28;20118;-82
2022/09/18 04:25:15;;;;;;;3.70;1.38;;;;;;;;;;5016119;28;20053;-80
2022/09/18 04:27:41;;;;;;;3.80;1.30;;;11.00;99.90;;;;;;5001753;28;20030;-81
2022/09/18 04:30:07;;;;;;;5.15;1.35;;;;;;;;;;4991291;28;20037;-80
2022/09/18 04:32:33;;;;;;;3.83;1.20;;;10.80;99.90;;;;;;4998626;28;20084;-84
2022/09/18 04:34:59;;;;;;;5.72;1.23;;;12.20;99.90;;;;;;4994718;28;20030;-79
2022/09/18 04:37:24;;;;;;;3.42;1.38;;;10.80;99.90;;;;;;4987147;28;20022;-82
2022/09/18 04:39:50;;;;;;;5.00;1.50;;;;;;;;;;4995055;28;20029;-81
2022/09/18 04:42:16;;;;;;;4.38;1.20;;;10.70;99.90;;;;;;5013010;28;20014;-83
2022/09/18 04:44:41;;;;;;;3.83;1.25;;;10.70;99.90;;;;;;4990973;28;20614;-81
2022/09/18 04:47:07;;;;;;;9.48;1.63;;;10.70;99.90;;;;;;5005738;28;20361;-81
2022/09/18 04:49:32;;;;;;;4.55;1.73;;;10.70;99.90;;;;;;5010966;28;20507;-79
2022/09/18 04:51:58;;;;;;;3.70;1.40;;;12.90;99.90;;;;;;4995028;28;20549;-82
2022/09/18 04:54:24;;;;;;;7.25;1.50;;;12.90;99.90;;;;;;4995285;28;20048;-80
2022/09/18 04:56:49;;;;;;;3.50;1.13;;;12.10;99.90;;;;;;4993306;28;20392;-83
2022/09/18 04:59:15;;;;;;;4.75;1.30;;;13.10;99.90;;;;;;4994436;28;20040;-82
2022/09/18 05:01:40;;;;;;;5.63;1.55;;;13.90;99.90;;;;;;4998120;28;20108;-84
2022/09/18 05:04:07;;;;;;;8.40;1.60;;;;;;;;;;5014524;28;20026;-82
2022/09/18 05:06:33;;;;;;;3.35;1.13;;;10.60;99.90;;;;;;4989996;28;20030;-85
2022/09/18 05:08:59;;;;;;;5.72;1.30;;;;;;;;;;4995141;28;20044;-82
2022/09/18 05:11:25;;;;;;;7.22;1.30;;;;;;;;;;4995969;28;20121;-79
2022/09/18 05:13:55;;;;;;;2.88;1.05;;;;;;;;;;4991243;28;20026;-82
2022/09/18 05:16:21;;;;;;;3.60;1.23;;;;;;;;;;4996984;28;20030;-84
2022/09/18 05:18:47;;;;;;;2.47;1.02;;;;;;;;;;5008787;28;20407;-83
2022/09/18 05:21:22;;;;;;;4.65;1.23;;;;;;;;;;4996385;28;20037;-81
2022/09/18 05:23:48;;;;;;;5.43;1.52;;;10.30;99.90;;;;;;4995331;28;20056;-82
2022/09/18 05:26:14;;;;;;;4.05;1.25;;;12.80;99.90;;;;;;4994947;28;20033;-84
2022/09/18 05:28:40;;;;;;;5.75;1.08;;;;;;;;;;5008774;28;20041;-85
2022/09/18 05:31:06;;;;;;;3.50;1.27;;;10.30;99.90;;;;;;4992387;28;20029;-80
2022/09/18 05:33:32;;;;;;;6.18;1.38;;;12.80;99.90;;;;;;4997873;28;20506;-83
2022/09/18 05:35:58;;;;;;;8.80;1.40;;;12.10;99.90;;;;;;4997149;28;20098;-84
2022/09/18 05:38:24;;;;;;;3.95;1.42;;;10.30;99.90;;;;;;4995940;28;20032;-82
2022/09/18 05:40:50;;;;;;;6.53;1.80;;;10.20;99.90;;;;;;4998116;28;20088;-82
2022/09/18 05:43:16;;;;;;;3.00;1.30;;;;;;;;;;5016301;28;20429;-83
2022/09/18 05:45:42;;;;;;;5.78;1.42;;;10.30;99.90;;;;;;5013070;28;20060;-84
2022/09/18 05:48:11;;;;;;;6.57;1.35;;;12.80;99.90;;;;;;5000667;28;20026;-84
2022/09/18 05:50:37;;;;;;;6.68;1.50;;;11.20;99.90;;;;;;5012889;28;20034;-85
2022/09/18 05:53:09;;;;;;;5.22;1.30;;;10.40;99.90;;;;;;4994955;28;20160;-81
2022/09/18 05:55:35;;;;;;;5.82;1.27;;;10.30;99.90;;;;;;4991937;28;20064;-82
2022/09/18 05:58:01;;;;;;;7.82;1.30;;;11.50;99.90;;;;;;5016649;28;20503;-84
2022/09/18 06:00:28;;;;;;;5.35;1.40;;;10.80;99.90;;;;;;4991145;28;20033;-82
2022/09/18 06:02:59;;;;;;;6.55;1.20;;;10.50;99.90;;;;;;4999693;28;20045;-84
2022/09/18 06:05:26;;;;;;;7.80;1.50;;;10.50;99.90;;;;;;4997999;28;20100;-83
2022/09/18 06:07:52;;;;;;;4.63;1.10;;;10.50;99.90;;;;;;4995318;28;20033;-84
2022/09/18 06:10:20;;;;;;;5.03;1.40;;;10.60;99.90;;;;;;4998516;28;20113;-83
2022/09/18 06:12:45;;;;;;;6.25;1.70;;;11.20;99.90;;;;;;5004805;28;20029;-85
2022/09/18 06:15:12;;;;;;;6.70;1.27;;;;;;;;;;5013851;28;20034;-85
2022/09/18 06:17:38;;;;;;;7.53;1.55;;;10.60;99.90;;;;;;5028310;28;20093;-84
2022/09/18 06:20:05;;;;;;;5.20;1.40;;;10.60;99.90;;;;;;5014574;28;20033;-82
2022/09/18 06:22:32;;;;;;;5.15;1.40;;;10.60;99.90;;;;;;4989440;28;20034;-84
2022/09/18 06:24:58;;;;;;;4.43;1.20;;;11.90;99.90;;;;;;5022276;28;20288;-80
2022/09/18 06:27:24;;;;;;;4.78;1.25;;;10.70;99.90;;;;;;4991589;28;20116;-84
2022/09/18 06:29:50;;;;;;;5.15;1.20;;;10.80;99.90;;;;;;4994724;28;20024;-82
2022/09/18 06:32:16;;;;;;;4.20;1.25;;;11.00;99.90;;;;;;5013899;28;20034;-85
2022/09/18 06:34:47;;;;;;;3.75;1.20;;;10.90;99.90;;;;;;4994962;28;20097;-84
2022/09/18 06:37:14;;;;;;;4.88;1.33;;;11.00;99.90;;;;;;5014609;28;20030;-84
2022/09/18 06:39:41;;;;;;;3.50;1.10;;;;;;;;;;4988319;28;20119;-87
2022/09/18 06:42:07;;;;;;;9.15;1.73;;;;;;;;;;5012725;28;20160;-86
2022/09/18 06:44:33;;;;;;;5.25;1.30;;;11.10;99.90;;;;;;4996603;28;20037;-85
2022/09/18 06:46:59;;;;;;;4.68;1.27;;;;;;;;;;5014327;28;20033;-86
2022/09/18 06:49:25;;;;;;;3.45;1.40;;;;;;;;;;4989488;28;20032;-86
2022/09/18 06:51:51;;;;;;;2.65;1.10;;;;;;;;;;4995942;28;20033;-85
2022/09/18 06:54:17;;;;;;;4.20;1.17;;;;;;;;;;5013860;28;20030;-83
2022/09/18 06:56:45;;;;;;;3.53;1.30;;;11.40;99.90;;;;;;5013171;28;20026;-82
2022/09/18 06:59:10;;;;;;;4.80;1.40;;;;;;;;;;4995818;28;20739;-84
2022/09/18 07:01:37;;;;;;;5.57;1.10;;;;;;;;;;5013760;28;20034;-83
2022/09/18 07:04:03;;;;;;;5.10;1.30;;;;;;;;;;4996281;28;20029;-87
2022/09/18 07:06:29;;;;;;;5.25;1.13;;;;;;;;;;5003013;28;20030;-84
2022/09/18 07:08:55;;;;;;;2.60;1.02;;;;;;;;;;4996014;28;20065;-82
2022/09/18 07:11:21;;;;;;;5.30;1.30;;;;;;;;;;4999755;28;20026;-85
2022/09/18 07:13:47;;;;;;;3.38;1.10;;;;;;;;;;4998740;28;20057;-84
2022/09/18 07:16:13;;;;;;;4.35;1.15;;;;;;;;;;4995969;28;20128;-84
2022/09/18 07:18:39;;;;;;;3.67;1.20;;;;;;;;;;4994429;28;20128;-84
2022/09/18 07:21:05;;;;;;;6.70;1.40;;;12.40;99.90;;;;;;4991251;28;20033;-84
2022/09/18 07:23:32;;;;;;;4.10;1.13;;;;;;;;;;4994725;28;20068;-85
2022/09/18 07:25:59;;;;;;;5.10;1.35;;;12.60;99.90;;;;;;4996584;28;20507;-86
2022/09/18 07:28:25;;;;;;;4.72;1.30;;;13.00;99.90;;;;;;5014666;28;20065;-82
2022/09/18 07:30:51;;;;;;;5.95;1.35;;;;;;;;;;4996907;28;20022;-83
2022/09/18 07:33:17;;;;;;;5.05;1.27;;;;;;;;;;4992780;28;20030;-84
2022/09/18 07:35:43;;;;;;;7.78;2.00;;;13.00;99.90;;;;;;5000972;28;20082;-85
2022/09/18 07:38:08;;;;;;;6.95;1.40;;;13.90;99.90;;;;;;4989162;28;20121;-82
2022/09/18 07:40:34;;;;;;;4.90;1.17;;;15.30;99.90;;;;;;4994459;28;20025;-87
2022/09/18 07:43:02;;;;;;;4.00;1.10;;;13.00;99.90;;;;;;4993835;28;20037;-81
2022/09/18 07:45:28;;;;;;;6.88;1.75;;;13.00;99.90;;;;;;4996140;28;20045;-88
2022/09/18 07:47:54;;;;;;;5.35;1.33;;;15.60;99.90;;;;;;4993977;28;20038;-85
2022/09/18 07:50:21;;;;;;;3.85;1.20;;;;;;;;;;4995530;28;20121;-83
2022/09/18 07:52:52;;;;;;;3.35;1.20;;;13.50;99.90;;;;;;4989251;28;20511;-84
2022/09/18 07:55:19;;;;;;;4.50;1.40;;;13.90;99.90;;;;;;4994073;28;20037;-85
2022/09/18 07:57:53;;;;;;;7.10;2.17;;;13.70;99.90;;;;;;5018266;28;20089;-86
2022/09/18 08:00:18;;;;;;;6.53;1.80;;;13.70;99.90;;;;;;4999941;28;20365;-83
2022/09/18 08:02:44;;;;;;;9.10;1.83;;;13.70;99.90;;;;;;5020774;28;20412;-82
2022/09/18 08:05:09;;;;;;;6.43;1.85;;;13.80;99.90;;;;;;5018819;28;20057;-85
2022/09/18 08:07:35;;;;;;;6.18;1.42;;;13.90;99.90;;;;;;5006051;28;20028;-81
2022/09/18 08:10:03;;;;;;;4.35;1.50;;;14.00;99.90;;;;;;5001920;28;20094;-83
2022/09/18 08:12:29;;;;;;;3.45;1.35;;;;;;;;;;4999468;28;20034;-85
2022/09/18 08:14:55;;;;;;;4.38;1.35;;;;;;;;;;5007507;28;20034;-84
2022/09/18 08:17:21;;;;;;;4.38;1.60;;;;;;;;;;4996117;28;20025;-85
2022/09/18 08:19:47;;;;;;;3.08;1.17;;;;;;;;;;5001305;28;20022;-85
2022/09/18 08:22:13;;;;;;;3.42;1.17;;;;;;;;;;4992766;28;20022;-83
2022/09/18 08:24:39;;;;;;;6.10;1.38;;;14.30;99.90;;;;;;5005845;28;20108;-83
2022/09/18 08:27:05;;;;;;;3.70;1.23;;;;;;;;;;5015996;28;20060;-86
2022/09/18 08:29:31;;;;;;;4.53;1.27;;;;;;;;;;5015844;28;20387;-83
2022/09/18 08:31:57;;;;;;;3.75;1.45;;;;;;;;;;4994215;28;20030;-86
2022/09/18 08:34:23;;;;;;;5.18;1.30;;;;;;;;;;4997346;28;20060;-89
2022/09/18 08:36:49;;;;;;;4.65;1.52;;;;;;;;;;5018507;28;20483;-86
2022/09/18 08:39:15;;;;;;;5.72;1.30;;;;;;;;;;4998433;28;20169;-86
2022/09/18 08:42:19;;;;;;;3.97;1.35;;;14.70;99.90;;;;;;5011250;28;20585;-85
2022/09/18 08:45:13;;;;;;;5.43;1.45;;;14.80;99.90;;;;;;4956203;28;20031;-85
2022/09/18 08:48:01;;;;;;;4.65;1.20;;;14.80;99.90;;;;;;5001758;28;20042;-83
2022/09/18 08:50:33;;;;;;;7.80;2.75;;;14.90;99.90;;;;;;4981875;28;20483;-86
2022/09/18 08:53:04;;;;;;;5.45;1.40;;;14.90;99.90;;;;;;5003168;28;20026;-86
2022/09/18 08:55:35;;;;;;;4.22;1.48;;;15.00;99.90;;;;;;5005973;28;20022;-85
2022/09/18 08:58:01;;;;;;;4.78;1.33;;;;;;;;;;5011828;28;20030;-87
2022/09/18 09:00:36;;;;;;;5.35;1.30;;;15.00;99.90;;;;;;5005441;28;20049;-86
2022/09/18 09:03:26;;;;;;;5.05;1.52;;;15.00;99.90;;;;;;5017784;28;20025;-83
2022/09/18 09:06:14;;;;;;;3.75;1.90;;;15.10;99.90;;;;;;4993918;28;20049;-85
2022/09/18 09:08:58;;;;;;;3.53;1.20;;;14.90;99.90;;;;;;4999428;28;20034;-81
2022/09/18 09:12:03;;;;;;;4.32;1.30;;;15.40;99.90;;;;;;5009048;28;20112;-81
2022/09/18 09:14:43;;;;;;;5.25;1.50;;;14.90;99.90;;;;;;5020333;28;20089;-85
2022/09/18 09:17:18;;;;;;;4.03;1.30;;;14.90;99.90;;;;;;5007785;28;20021;-82
2022/09/18 09:20:21;;;;;;;3.00;1.08;;;14.90;99.90;;;;;;5001016;28;20137;-83
2022/09/18 09:23:14;;;;;;;3.45;1.30;;;15.00;99.90;;;;;;4990672;28;20399;-82
2022/09/18 09:26:22;;;;;;;3.30;1.30;;;15.00;99.90;;;;;;5001147;28;20026;-85
2022/09/18 09:29:14;;;;;;;4.47;1.13;;;15.00;99.90;;;;;;4995021;28;20034;-85
2022/09/18 09:31:47;;;;;;;5.07;1.40;;;15.10;99.90;;;;;;5010504;28;20045;-82
2022/09/18 09:34:13;;;;;;;2.17;1.10;;;;;;;;;;5011484;28;20084;-82
2022/09/18 09:36:46;;;;;;;6.80;1.27;;;15.00;99.90;;;;;;5021239;28;20037;-85
2022/09/18 09:39:27;;;;;;;10.57;1.85;;;14.00;99.90;;;;;;4994869;28;20026;-86
2022/09/18 09:42:48;;;;;;;3.95;1.20;;;15.20;99.90;;;;;;4999871;28;20027;-81
2022/09/18 09:45:28;;;;;;;4.55;1.17;;;15.30;99.90;;;;;;4908719;29;20055;-80
2022/09/18 09:48:15;;;;;;;8.20;1.27;;;15.40;99.90;;;;;;5007629;28;20164;-80
2022/09/18 09:51:01;;;;;;;3.45;1.20;;;15.50;99.90;;;;;;5000202;28;20026;-83
2022/09/18 09:53:32;;;;;;;2.60;1.10;;;17.10;99.90;;;;;;5018778;28;20113;-83
2022/09/18 09:56:37;;;;;;;3.15;1.13;;;15.70;99.90;;;;;;5003176;28;20056;-80
2022/09/18 09:59:20;;;;;;;2.97;1.20;;;15.70;99.90;;;;;;4993078;28;20034;-85
2022/09/18 10:02:38;;;;;;;5.78;1.67;;;15.70;99.90;;;;;;5013964;28;20029;-80
2022/09/18 10:05:32;;;;;;;5.50;1.30;;;15.90;99.90;;;;;;5013480;28;20041;-83
2022/09/18 10:08:30;;;;;;;5.35;1.73;;;16.10;99.90;;;;;;5014641;28;20029;-85
2022/09/18 10:11:04;;;;;;;3.63;1.30;;;16.20;99.90;;;;;;5012511;28;20093;-81
2022/09/18 10:13:42;;;;;;;6.43;1.40;;;16.20;99.90;;;;;;5020839;28;20006;-82
2022/09/18 10:16:22;;;;;;;6.45;1.10;;;16.40;99.90;;;;;;5008085;28;20046;-83
2022/09/18 10:18:49;;;;;;;2.33;1.10;;;;;;;;;;4998289;28;20120;-84
2022/09/18 10:21:21;;;;;;;3.40;1.40;;;16.30;99.90;;;;;;4996813;28;20030;-86
2022/09/18 10:24:10;;;;;;;5.55;1.80;;;16.40;99.90;;;;;;5001868;28;20402;-87
2022/09/18 10:26:48;;;;;;;3.78;1.15;;;16.70;99.00;;;;;;5018654;28;20033;-82
2022/09/18 10:29:16;;;;;;;3.88;1.58;;;16.70;99.50;;;;;;4999017;28;20483;-83
2022/09/18 10:32:00;;;;;;;4.18;1.75;;;16.80;99.90;;;;;;5000060;28;20038;-81
2022/09/18 10:34:47;;;;;;;3.92;1.50;;;15.90;99.00;;;;;;5019330;28;20092;-84
2022/09/18 10:37:16;;;;;;;5.45;1.85;;;16.80;99.00;;;;;;4995871;28;20033;-84
2022/09/18 10:39:50;;;;;;;5.45;1.40;;;16.80;99.90;;;;;;4988789;28;20025;-83
2022/09/18 10:42:19;;;;;;;3.38;1.20;;;16.70;99.00;;;;;;5003257;28;20088;-82
2022/09/18 10:44:52;;;;;;;5.00;1.13;;;16.60;99.20;;;;;;4992468;28;20033;-80
2022/09/18 10:47:27;;;;;;;2.58;1.17;;;16.50;99.10;;;;;;4988993;28;20034;-81
2022/09/18 10:49:57;;;;;;;4.45;1.50;;;16.30;99.00;;;;;;5006831;28;20032;-81
2022/09/18 10:52:26;;;;;;;;;;;16.20;99.10;;;;;;4997256;28;20053;-82
2022/09/18 10:55:04;;;;;;;4.65;1.63;;;16.10;99.50;;;;;;4985416;28;19917;-83
2022/09/18 10:57:36;;;;;;;6.78;1.38;;;15.80;99.10;;;;;;4990736;28;20022;-79
2022/09/18 11:00:15;;;;;;;3.53;1.15;;;15.80;99.40;;;;;;4989056;28;20032;-87
2022/09/18 11:02:48;;;;;;;3.17;1.65;;;15.70;99.90;;;;;;4993397;28;20610;-82
2022/09/18 11:05:17;;;;;;;3.30;1.17;;;15.70;99.50;;;;;;4991322;28;20339;-84
2022/09/18 11:07:59;;;;;;;2.45;1.30;;;15.70;99.10;;;;;;5005920;28;20484;-82
2022/09/18 11:10:28;;;;;;;3.58;1.40;;;15.80;99.20;;;;;;5002808;28;20492;-84
2022/09/18 11:12:56;;;;;;;4.78;1.20;;;15.60;99.20;;;;;;5001908;28;20041;-83
2022/09/18 11:15:26;;;;;;;5.97;1.58;;;15.60;99.40;;;;;;4984728;28;20033;-84
2022/09/18 11:17:54;;;;;;;4.80;1.67;;;17.20;99.90;;;;;;4985435;28;20101;-87
2022/09/18 11:20:29;;;;;;;2.85;1.17;;;15.80;99.80;;;;;;4996785;28;20080;-84
2022/09/18 11:23:13;;;;;;;6.95;1.60;;;15.60;99.50;;;;;;5006943;28;20038;-79
2022/09/18 11:25:40;;;;;;;6.13;2.30;;;16.70;99.80;;;;;;4994977;28;20030;-83
2022/09/18 11:28:26;;;;;;;4.38;1.48;;;15.70;99.60;;;;;;5011671;28;20025;-85
2022/09/18 11:31:05;;;;;;;3.97;1.50;;;15.60;99.70;;;;;;4991106;28;20621;-84
2022/09/18 11:33:44;;;;;;;5.20;1.85;;;15.60;99.90;;;;;;5006880;28;20321;-84
2022/09/18 11:36:12;;;;;;;4.70;1.20;;;16.40;99.90;;;;;;5008035;28;20038;-84
2022/09/18 11:38:41;;;;;;;3.03;1.00;;;15.70;99.40;;;;;;4994201;28;20018;-83
2022/09/18 11:41:09;;;;;;;4.10;1.90;;;16.10;99.60;;;;;;4996320;28;20058;-83
2022/09/18 11:43:38;;;;;;;3.40;1.45;;;15.80;99.10;;;;;;5007594;28;20132;-84
2022/09/18 11:46:21;;;;;;;2.08;1.23;;;15.70;98.70;;;;;;5012931;28;20033;-87
2022/09/18 11:49:15;;;;;;;2.53;1.05;;;15.80;98.60;;;;;;5029849;28;20105;-83
2022/09/18 11:52:21;;;;;;;7.60;1.90;;;15.70;98.90;;;;;;5025672;28;20033;-86
2022/09/18 11:55:06;;;;;;;5.32;1.52;;;15.60;98.80;;;;;;5019220;28;20018;-87
2022/09/18 11:57:40;;;;;;;4.55;1.17;;;15.70;99.00;;;;;;5020209;28;20491;-81
2022/09/18 12:00:13;;;;;;;2.90;1.10;;;15.90;97.80;;;;;;4997471;28;20030;-86
2022/09/18 12:03:16;;;;;;;5.35;1.55;;;16.10;97.70;;;;;;4998281;28;20022;-82
2022/09/18 12:06:02;;;;;;;4.40;1.83;;;16.20;97.20;;;;;;5000760;28;20061;-86
2022/09/18 12:08:48;;;;;;;4.75;1.50;;;16.40;95.80;;;;;;4997358;28;20463;-85
2022/09/18 12:11:39;;;;;;;4.30;1.50;;;16.40;96.10;;;;;;4995042;28;20040;-84
2022/09/18 12:14:18;;;;;;;4.70;1.90;;;16.80;96.00;;;;;;4996274;28;20034;-83
2022/09/18 12:16:56;;;;;;;3.45;1.40;;;16.90;95.00;;;;;;4998839;28;20026;-84
2022/09/18 12:19:28;;;;;;;5.78;1.98;;;17.00;95.10;;;;;;4997107;28;20042;-86
2022/09/18 12:22:01;;;;;;;5.68;1.55;;;17.10;95.00;;;;;;4987449;28;20029;-84
2022/09/18 12:24:27;;;;;;;3.55;1.30;;;17.00;95.00;;;;;;5003578;28;20544;-85
2022/09/18 12:26:58;;;;;;;7.68;2.80;;;16.90;94.90;;;;;;4997514;28;20030;-87
2022/09/18 12:29:39;;;;;;;4.75;1.50;;;16.90;95.20;;;;;;4999348;28;20038;-85
2022/09/18 12:32:25;;;;;;;2.72;1.10;;;17.00;95.40;;;;;;5006711;28;20082;-86
2022/09/18 12:35:28;;;;;;;5.72;2.40;;;17.00;95.00;;;;;;4988091;28;20080;-84
2022/09/18 12:38:14;;;;;;;3.15;1.00;;;17.10;94.50;;;;;;4999488;28;20029;-85
2022/09/18 12:40:48;;;;;;;3.55;1.98;;;17.10;94.00;;;;;;5013100;28;20027;-84
2022/09/18 12:43:14;;;;;;;4.65;2.03;;;17.00;94.30;;;;;;4993364;28;20049;-85
2022/09/18 12:45:58;;;;;;;2.83;1.20;;;16.90;93.80;;;;;;5009214;28;20521;-85
2022/09/18 12:49:11;;;;;;;7.97;2.15;;;17.00;93.20;;;;;;5015664;28;20029;-86
2022/09/18 12:51:47;;;;;;;3.13;1.10;;;17.00;93.40;;;;;;4991280;28;20069;-83
2022/09/18 12:55:03;;;;;;;3.00;1.70;;;17.10;93.10;;;;;;4990711;28;20030;-85
2022/09/18 12:57:40;;;;;;;1.98;1.05;;;17.00;92.70;;;;;;4950192;28;20038;-86
2022/09/18 13:00:13;;;;;;;1.77;0.93;;;17.00;93.10;;;;;;4992385;28;20033;-86
2022/09/18 13:02:55;;;;;;;8.68;1.40;;;16.90;92.90;;;;;;4993495;28;20109;-84
2022/09/18 13:05:27;;;;;;;2.88;1.00;;;16.80;93.20;;;;;;4993985;28;20033;-82
2022/09/18 13:08:09;;;;;;;4.78;1.13;;;16.70;93.20;;;;;;5008216;28;20022;-85
2022/09/18 13:10:42;;;;;;;3.58;1.05;;;17.00;92.30;;;;;;4995204;28;20034;-85
2022/09/18 13:13:31;;;;;;;3.25;1.00;;;17.00;92.50;;;;;;4995103;28;20037;-85
2022/09/18 13:16:04;;;;;;;1.90;0.80;;;17.00;92.00;;;;;;5014828;28;20037;-86
2022/09/18 13:18:44;;;;;;;1.73;0.85;;;17.10;91.70;;;;;;4997068;28;20045;-82
2022/09/18 13:21:36;;;;;;;5.13;2.63;;;17.20;92.00;;;;;;4995621;28;20022;-85
2022/09/18 13:24:04;;;;;;;4.13;1.42;;;17.20;91.70;;;;;;4995001;28;20056;-83
2022/09/18 13:26:35;;;;;;;3.88;1.35;;;17.30;91.60;;;;;;5000084;28;20030;-82
2022/09/18 13:29:02;;;;;;;3.42;1.23;;;17.50;91.60;;;;;;4996841;28;20034;-84
2022/09/18 13:31:31;;;;;;;4.78;1.63;;;17.60;91.50;;;;;;5012086;28;20042;-88
2022/09/18 13:34:24;;;;;;;3.53;1.60;;;17.50;91.80;;;;;;5014793;28;20030;-85
2022/09/18 13:36:50;;;;;;;3.35;0.75;;;17.10;91.20;;;;;;4987553;28;20307;-86
2022/09/18 13:39:22;;;;;;;4.78;1.77;;;17.00;90.80;;;;;;5010973;28;20021;-87
2022/09/18 13:41:49;;;;;;;4.10;1.17;;;16.90;91.30;;;;;;5024161;28;20125;-85
2022/09/18 13:44:22;;;;;;;3.25;1.33;;;16.80;91.10;;;;;;5009099;28;20110;-87
2022/09/18 13:46:49;;;;;;;2.22;1.00;;;18.50;91.80;;;;;;5011948;28;20022;-85
2022/09/18 13:49:30;;;;;;;4.53;1.33;;;17.40;91.90;;;;;;4997746;28;20578;-85
2022/09/18 13:52:31;;;;;;;4.07;1.27;;;16.80;91.10;;;;;;4993772;28;20088;-87
2022/09/18 13:55:12;;;;;;;4.90;1.85;;;16.80;91.40;;;;;;5011729;28;20022;-84